createdAt,value
2023-01-19T00:00:15.738Z,1.00
2023-01-19T00:02:43.367Z,0.90
2023-01-19T00:05:10.126Z,0.50
2023-01-19T00:07:36.621Z,0.30
2023-01-19T00:10:03.590Z,0.60
2023-01-19T00:12:30.240Z,0.70
2023-01-19T00:14:56.760Z,1.00
2023-01-19T00:17:23.285Z,1.30
2023-01-19T00:19:50.943Z,1.40
2023-01-19T00:22:17.482Z,1.30
2023-01-19T00:24:45.138Z,1.00
2023-01-19T00:27:11.664Z,1.00
2023-01-19T00:29:38.217Z,1.20
2023-01-19T00:32:05.499Z,1.20
2023-01-19T00:34:39.446Z,1.30
2023-01-19T00:37:07.272Z,0.70
2023-01-19T00:39:33.793Z,0.40
2023-01-19T00:42:19.022Z,0.10
2023-01-19T00:44:45.595Z,-0.10
2023-01-19T00:47:12.115Z,-0.10
2023-01-19T00:49:39.399Z,-0.10
2023-01-19T00:52:06.369Z,-0.20
2023-01-19T00:54:33.099Z,-0.50
2023-01-19T00:56:59.635Z,-0.80
2023-01-19T00:59:26.119Z,-0.90
2023-01-19T01:01:52.878Z,-0.90
2023-01-19T01:04:19.606Z,-0.90
2023-01-19T01:06:46.408Z,-1.00
2023-01-19T01:09:13.075Z,-1.30
2023-01-19T01:11:43.212Z,-1.20
2023-01-19T01:14:11.048Z,-0.80
2023-01-19T01:16:37.616Z,-0.60
2023-01-19T01:19:04.129Z,-0.50
2023-01-19T01:21:30.865Z,-0.20
2023-01-19T01:23:57.378Z,-0.10
2023-01-19T01:26:24.693Z,0.10
2023-01-19T01:28:52.423Z,-0.40
2023-01-19T01:31:18.968Z,-0.40
2023-01-19T01:33:45.862Z,-0.70
2023-01-19T01:36:12.724Z,-0.60
2023-01-19T01:38:42.426Z,-0.70
2023-01-19T01:41:09.081Z,-0.60
2023-01-19T01:43:54.763Z,-0.60
2023-01-19T01:46:21.319Z,-0.70
2023-01-19T01:49:07.926Z,-0.60
2023-01-19T01:51:41.815Z,-0.60
2023-01-19T01:54:23.613Z,-0.30
2023-01-19T01:56:51.911Z,-0.50
2023-01-19T01:59:28.023Z,-0.80
2023-01-19T02:02:14.735Z,-0.80
2023-01-19T02:04:51.501Z,-0.80
2023-01-19T02:07:45.711Z,-0.70
2023-01-19T02:10:30.791Z,-0.40
2023-01-19T02:13:16.337Z,-0.10
2023-01-19T02:15:44.027Z,0.20
2023-01-19T02:18:10.856Z,0.40
2023-01-19T02:20:38.011Z,0.50
2023-01-19T02:23:07.794Z,0.00
2023-01-19T02:25:34.346Z,-0.30
2023-01-19T02:28:01.222Z,-0.70
2023-01-19T02:30:27.875Z,-1.20
2023-01-19T02:32:54.410Z,-1.10
2023-01-19T02:35:21.100Z,-1.30
2023-01-19T02:37:48.325Z,-1.40
2023-01-19T02:40:19.634Z,-1.50
2023-01-19T02:42:50.374Z,-1.60
2023-01-19T02:45:20.103Z,-1.60
2023-01-19T02:47:50.396Z,-1.40
2023-01-19T02:50:38.186Z,-1.00
2023-01-19T02:53:20.824Z,-1.50
2023-01-19T02:56:12.842Z,-1.40
2023-01-19T02:58:58.414Z,-1.70
2023-01-19T03:01:46.962Z,-1.80
2023-01-19T03:04:40.706Z,-1.60
2023-01-19T03:07:21.340Z,-1.70
2023-01-19T03:09:58.930Z,-1.70
2023-01-19T03:12:34.108Z,-1.60
2023-01-19T03:15:05.171Z,-1.80
2023-01-19T03:17:32.237Z,-1.60
2023-01-19T03:19:58.757Z,-2.00
2023-01-19T03:22:27.824Z,-1.70
2023-01-19T03:24:56.426Z,-1.70
2023-01-19T03:27:35.322Z,-1.70
2023-01-19T03:30:06.344Z,-1.80
2023-01-19T03:32:36.197Z,-1.70
2023-01-19T03:35:10.527Z,-2.00
2023-01-19T03:37:46.208Z,-1.80
2023-01-19T03:40:16.837Z,-1.60
2023-01-19T03:42:49.034Z,-1.60
2023-01-19T03:45:25.491Z,-1.80
2023-01-19T03:48:11.195Z,-1.80
2023-01-19T03:50:51.392Z,-1.60
2023-01-19T03:53:23.076Z,-1.50
2023-01-19T03:55:57.529Z,-1.80
2023-01-19T03:58:28.552Z,-2.00
2023-01-19T04:00:57.072Z,-1.90
2023-01-19T04:03:34.885Z,-1.70
2023-01-19T04:06:02.646Z,-1.70
2023-01-19T04:08:29.366Z,-1.80
2023-01-19T04:11:01.945Z,-1.70
2023-01-19T04:13:41.095Z,-1.50
2023-01-19T04:16:12.269Z,-1.20
2023-01-19T04:18:40.823Z,-1.80
2023-01-19T04:21:11.463Z,-2.00
2023-01-19T04:23:38.331Z,-2.10
2023-01-19T04:26:06.982Z,-2.20
2023-01-19T04:28:41.534Z,-2.20
2023-01-19T04:31:15.021Z,-2.30
2023-01-19T04:33:45.585Z,-2.20
2023-01-19T04:36:13.352Z,-2.10
2023-01-19T04:38:40.667Z,-2.10
2023-01-19T04:41:10.790Z,-1.80
2023-01-19T04:43:41.183Z,-1.70
2023-01-19T04:46:09.190Z,-1.70
2023-01-19T04:48:41.387Z,-1.40
2023-01-19T04:51:09.533Z,-1.40
2023-01-19T04:53:42.835Z,-1.50
2023-01-19T04:56:11.109Z,-1.60
2023-01-19T04:58:44.811Z,-1.30
2023-01-19T05:01:20.602Z,-1.60
2023-01-19T05:03:50.461Z,-1.30
2023-01-19T05:06:16.966Z,-0.90
2023-01-19T05:08:45.329Z,-1.30
2023-01-19T05:11:12.021Z,-1.60
2023-01-19T05:13:38.555Z,-1.50
2023-01-19T05:16:06.179Z,-1.60
2023-01-19T05:18:36.203Z,-1.70
2023-01-19T05:21:03.925Z,-1.30
2023-01-19T05:23:32.503Z,-0.90
2023-01-19T05:26:02.875Z,-1.30
2023-01-19T05:28:30.780Z,-1.20
2023-01-19T05:30:57.589Z,-1.40
2023-01-19T05:33:24.641Z,-1.20
2023-01-19T05:35:52.389Z,-1.40
2023-01-19T05:38:29.326Z,-1.60
2023-01-19T05:41:00.601Z,-1.90
2023-01-19T05:43:27.214Z,-1.90
2023-01-19T05:45:53.745Z,-2.00
2023-01-19T05:48:20.286Z,-2.20
2023-01-19T05:50:49.887Z,-2.20
2023-01-19T05:53:16.938Z,-2.40
2023-01-19T05:55:43.565Z,-2.40
2023-01-19T05:58:10.149Z,-2.20
2023-01-19T06:00:36.868Z,-2.20
2023-01-19T06:03:04.398Z,-2.50
2023-01-19T06:05:31.280Z,-2.40
2023-01-19T06:07:57.781Z,-2.40
2023-01-19T06:10:24.310Z,-2.40
2023-01-19T06:12:52.431Z,-2.40
2023-01-19T06:15:19.457Z,-2.70
2023-01-19T06:17:46.147Z,-2.70
2023-01-19T06:20:14.220Z,-2.70
2023-01-19T06:22:40.859Z,-2.60
2023-01-19T06:25:07.754Z,-2.60
2023-01-19T06:27:34.360Z,-2.80
2023-01-19T06:30:01.011Z,-2.90
2023-01-19T06:32:27.608Z,-2.80
2023-01-19T06:34:54.288Z,-2.60
2023-01-19T06:37:21.053Z,-2.50
2023-01-19T06:39:47.620Z,-2.20
2023-01-19T06:42:14.269Z,-1.70
2023-01-19T06:44:47.201Z,-1.40
2023-01-19T06:47:16.342Z,-2.10
2023-01-19T06:49:43.318Z,-2.40
2023-01-19T06:52:11.386Z,-2.60
2023-01-19T06:54:38.251Z,-2.10
2023-01-19T06:57:04.815Z,-1.80
2023-01-19T06:59:31.789Z,-2.20
2023-01-19T07:01:58.952Z,-2.40
2023-01-19T07:04:26.966Z,-2.60
2023-01-19T07:06:53.548Z,-2.60
2023-01-19T07:09:20.407Z,-2.60
2023-01-19T07:11:48.011Z,-2.60
2023-01-19T07:14:14.885Z,-2.70
2023-01-19T07:16:41.632Z,-2.20
2023-01-19T07:19:10.600Z,-2.60
2023-01-19T07:21:37.298Z,-2.60
2023-01-19T07:24:03.861Z,-2.70
2023-01-19T07:26:30.861Z,-2.70
2023-01-19T07:28:57.375Z,-2.60
2023-01-19T07:31:24.060Z,-2.30
2023-01-19T07:33:50.692Z,-2.70
2023-01-19T07:36:17.236Z,-2.80
2023-01-19T07:38:44.007Z,-2.80
2023-01-19T07:41:11.071Z,-2.60
2023-01-19T07:43:37.720Z,-2.70
2023-01-19T07:46:08.216Z,-2.70
2023-01-19T07:48:35.076Z,-2.70
2023-01-19T07:51:05.637Z,-2.60
2023-01-19T07:53:32.669Z,-2.70
2023-01-19T07:55:59.168Z,-2.80
2023-01-19T07:58:26.433Z,-2.70
2023-01-19T08:00:53.380Z,-2.70
2023-01-19T08:03:20.223Z,-2.50
2023-01-19T08:05:50.470Z,-2.70
2023-01-19T08:08:16.946Z,-2.70
2023-01-19T08:10:43.592Z,-2.70
2023-01-19T08:13:10.055Z,-2.90
2023-01-19T08:15:36.608Z,-2.90
2023-01-19T08:18:09.657Z,-2.90
2023-01-19T08:20:36.426Z,-2.90
2023-01-19T08:23:04.757Z,-3.00
2023-01-19T08:25:37.337Z,-3.00
2023-01-19T08:28:05.430Z,-2.90
2023-01-19T08:30:32.759Z,-2.90
2023-01-19T08:33:07.949Z,-2.70
2023-01-19T08:35:37.045Z,-2.60
2023-01-19T08:38:04.814Z,-2.40
2023-01-19T08:40:34.621Z,-2.50
2023-01-19T08:43:11.721Z,-2.50
2023-01-19T08:45:47.979Z,-2.30
2023-01-19T08:48:16.231Z,-2.30
2023-01-19T08:50:42.860Z,-2.20
2023-01-19T08:53:10.169Z,-2.00
2023-01-19T08:55:37.139Z,-2.20
2023-01-19T08:58:04.969Z,-2.30
2023-01-19T09:00:33.529Z,-2.00
2023-01-19T09:03:03.463Z,-2.00
2023-01-19T09:05:35.358Z,-1.90
2023-01-19T09:08:05.288Z,-1.70
2023-01-19T09:10:35.727Z,-1.60
2023-01-19T09:13:08.069Z,-1.70
2023-01-19T09:15:35.797Z,-1.50
2023-01-19T09:18:03.042Z,-1.30
2023-01-19T09:20:31.096Z,-1.40
2023-01-19T09:22:58.315Z,-1.50
2023-01-19T09:25:25.226Z,-1.50
2023-01-19T09:27:52.369Z,-1.30
2023-01-19T09:30:19.262Z,-0.70
2023-01-19T09:32:46.164Z,-0.50
2023-01-19T09:35:12.971Z,-0.80
2023-01-19T09:37:39.487Z,-0.80
2023-01-19T09:40:07.141Z,-0.60
2023-01-19T09:42:48.627Z,-0.60
2023-01-19T09:45:38.470Z,-0.60
2023-01-19T09:48:13.340Z,-0.10
2023-01-19T09:50:42.483Z,0.00
2023-01-19T09:53:16.293Z,0.10
2023-01-19T09:55:43.177Z,0.30
2023-01-19T09:58:13.713Z,0.00
2023-01-19T10:00:42.540Z,0.30
2023-01-19T10:03:16.611Z,0.30
2023-01-19T10:05:53.646Z,0.00
2023-01-19T10:08:39.140Z,0.00
2023-01-19T10:11:17.642Z,0.30
2023-01-19T10:13:54.240Z,0.40
2023-01-19T10:16:31.552Z,0.70
2023-01-19T10:19:02.671Z,0.80
2023-01-19T10:21:40.092Z,0.30
2023-01-19T10:24:23.106Z,1.00
2023-01-19T10:26:53.556Z,0.80
2023-01-19T10:29:22.741Z,1.30
2023-01-19T10:31:52.391Z,1.70
2023-01-19T10:34:23.668Z,0.90
2023-01-19T10:36:54.153Z,1.20
2023-01-19T10:39:20.923Z,1.60
2023-01-19T10:41:50.918Z,2.10
2023-01-19T10:44:22.866Z,2.50
2023-01-19T10:46:50.351Z,2.00
2023-01-19T10:49:35.382Z,1.80
2023-01-19T10:52:02.476Z,1.90
2023-01-19T10:54:30.548Z,1.80
2023-01-19T10:56:59.399Z,2.00
2023-01-19T10:59:50.755Z,1.80
2023-01-19T11:02:21.619Z,1.90
2023-01-19T11:04:51.140Z,1.70
2023-01-19T11:07:26.773Z,1.70
2023-01-19T11:10:11.554Z,1.70
2023-01-19T11:13:08.588Z,1.90
2023-01-19T11:15:47.197Z,2.20
2023-01-19T11:18:33.451Z,2.30
2023-01-19T11:21:08.282Z,2.10
2023-01-19T11:23:42.971Z,2.50
2023-01-19T11:26:16.187Z,2.30
2023-01-19T11:28:46.402Z,2.00
2023-01-19T11:31:16.042Z,2.50
2023-01-19T11:33:43.656Z,2.70
2023-01-19T11:36:25.368Z,2.80
2023-01-19T11:38:56.694Z,2.10
2023-01-19T11:41:29.640Z,2.30
2023-01-19T11:44:35.767Z,2.70
2023-01-19T11:47:06.005Z,3.00
2023-01-19T11:49:51.859Z,2.90
2023-01-19T11:52:28.566Z,2.70
2023-01-19T11:55:03.847Z,2.80
2023-01-19T11:57:30.379Z,2.60
2023-01-19T12:00:03.259Z,2.70
2023-01-19T12:02:42.892Z,3.00
2023-01-19T12:05:15.111Z,2.60
2023-01-19T12:07:44.055Z,3.40
2023-01-19T12:10:26.054Z,2.90
2023-01-19T12:12:53.596Z,2.70
2023-01-19T12:15:46.379Z,3.20
2023-01-19T12:18:19.634Z,2.90
2023-01-19T12:20:54.632Z,2.80
2023-01-19T12:23:33.464Z,2.80
2023-01-19T12:26:35.485Z,2.80
2023-01-19T12:29:12.690Z,2.70
2023-01-19T12:31:40.623Z,3.00
2023-01-19T12:34:26.027Z,3.10
2023-01-19T12:37:00.672Z,3.10
2023-01-19T12:39:27.323Z,3.60
2023-01-19T12:42:13.599Z,3.50
2023-01-19T12:44:40.329Z,3.00
2023-01-19T12:47:15.913Z,3.00
2023-01-19T12:49:46.712Z,3.20
2023-01-19T12:52:35.025Z,3.70
2023-01-19T12:55:13.809Z,4.10
2023-01-19T12:58:13.829Z,3.40
2023-01-19T13:00:42.720Z,4.00
2023-01-19T13:03:18.508Z,4.20
2023-01-19T13:05:49.066Z,3.60
2023-01-19T13:08:17.628Z,3.40
2023-01-19T13:10:59.400Z,4.00
2023-01-19T13:13:27.594Z,4.10
2023-01-19T13:15:55.932Z,3.80
2023-01-19T13:18:35.011Z,4.70
2023-01-19T13:21:04.620Z,4.00
2023-01-19T13:23:52.402Z,3.90
2023-01-19T13:26:30.454Z,4.20
2023-01-19T13:29:02.363Z,3.80
2023-01-19T13:31:37.717Z,3.50
2023-01-19T13:34:09.697Z,3.30
2023-01-19T13:36:37.757Z,3.00
2023-01-19T13:39:27.112Z,2.70
2023-01-19T13:41:54.185Z,3.20
2023-01-19T13:44:39.090Z,3.30
2023-01-19T13:47:12.697Z,2.70
2023-01-19T13:49:40.576Z,2.50
2023-01-19T13:52:12.777Z,2.70
2023-01-19T13:55:06.340Z,2.90
2023-01-19T13:57:39.647Z,2.80
2023-01-19T14:00:09.520Z,2.70
2023-01-19T14:02:51.407Z,2.40
2023-01-19T14:05:35.182Z,2.20
2023-01-19T14:08:02.588Z,2.10
2023-01-19T14:10:31.179Z,2.40
2023-01-19T14:13:02.040Z,2.20
2023-01-19T14:15:30.180Z,2.20
2023-01-19T14:18:17.601Z,1.80
2023-01-19T14:20:57.679Z,1.80
2023-01-19T14:23:51.533Z,1.70
2023-01-19T14:26:42.211Z,1.60
2023-01-19T14:29:36.610Z,1.70
2023-01-19T14:32:07.435Z,1.70
2023-01-19T14:34:47.647Z,1.90
2023-01-19T14:37:24.486Z,1.70
2023-01-19T14:40:00.997Z,1.60
2023-01-19T14:42:35.117Z,1.80
2023-01-19T14:45:03.820Z,1.80
2023-01-19T14:47:38.126Z,1.40
2023-01-19T14:50:30.299Z,1.30
2023-01-19T14:53:01.124Z,1.30
2023-01-19T14:55:36.542Z,1.20
2023-01-19T14:58:12.250Z,1.40
2023-01-19T15:00:40.078Z,1.30
2023-01-19T15:03:06.963Z,1.10
2023-01-19T15:05:33.648Z,1.10
2023-01-19T15:08:01.939Z,1.00
2023-01-19T15:10:28.977Z,1.10
2023-01-19T15:12:56.443Z,1.10
2023-01-19T15:15:30.785Z,1.30
2023-01-19T15:17:58.648Z,1.10
2023-01-19T15:20:25.262Z,1.40
2023-01-19T15:22:51.782Z,1.20
2023-01-19T15:25:20.410Z,1.20
2023-01-19T15:27:48.177Z,1.10
2023-01-19T15:30:18.182Z,0.80
2023-01-19T15:32:44.777Z,0.80
2023-01-19T15:35:21.970Z,0.80
2023-01-19T15:37:49.130Z,0.80
2023-01-19T15:40:17.118Z,0.70
2023-01-19T15:42:43.700Z,0.60
2023-01-19T15:45:27.925Z,0.70
2023-01-19T15:47:54.409Z,0.70
2023-01-19T15:50:20.935Z,0.70
2023-01-19T15:52:47.472Z,0.80
2023-01-19T15:55:15.815Z,0.90
2023-01-19T15:57:42.360Z,0.80
2023-01-19T16:00:10.280Z,0.60
2023-01-19T16:02:37.615Z,0.50
2023-01-19T16:05:04.465Z,0.50
2023-01-19T16:07:31.032Z,0.40
2023-01-19T16:09:57.558Z,0.40
2023-01-19T16:12:24.078Z,0.60
2023-01-19T16:14:50.609Z,0.50
2023-01-19T16:17:17.073Z,0.40
2023-01-19T16:19:43.596Z,0.40
2023-01-19T16:22:12.847Z,0.40
2023-01-19T16:24:39.354Z,0.40
2023-01-19T16:27:07.973Z,0.50
2023-01-19T16:29:34.837Z,0.40
2023-01-19T16:32:01.476Z,0.70
2023-01-19T16:34:28.041Z,0.80
2023-01-19T16:36:54.716Z,0.50
2023-01-19T16:39:21.766Z,0.50
2023-01-19T16:41:48.350Z,0.30
2023-01-19T16:44:15.908Z,0.40
2023-01-19T16:46:44.696Z,0.40
2023-01-19T16:49:12.563Z,0.40
2023-01-19T16:51:39.568Z,0.40
2023-01-19T16:54:06.202Z,0.40
2023-01-19T16:56:32.828Z,0.70
2023-01-19T16:58:59.944Z,0.40
2023-01-19T17:01:28.484Z,0.50
2023-01-19T17:03:55.761Z,0.30
2023-01-19T17:06:23.498Z,0.60
2023-01-19T17:08:50.908Z,0.40
2023-01-19T17:11:20.763Z,0.20
2023-01-19T17:13:56.732Z,0.30
2023-01-19T17:16:24.618Z,0.20
2023-01-19T17:18:51.293Z,0.10
2023-01-19T17:21:19.308Z,0.20
2023-01-19T17:23:47.272Z,0.20
2023-01-19T17:26:14.688Z,0.40
2023-01-19T17:28:41.643Z,0.60
2023-01-19T17:31:19.355Z,0.80
2023-01-19T17:33:48.092Z,0.80
2023-01-19T17:36:17.161Z,1.00
2023-01-19T17:38:43.631Z,1.30
2023-01-19T17:41:13.883Z,1.10
2023-01-19T17:43:40.521Z,0.90
2023-01-19T17:46:07.034Z,1.00
2023-01-19T17:48:33.583Z,1.50
2023-01-19T17:51:05.535Z,1.80
2023-01-19T17:53:33.275Z,1.10
2023-01-19T17:56:04.358Z,1.10
2023-01-19T17:58:31.519Z,1.40
2023-01-19T18:00:58.802Z,1.50
2023-01-19T18:03:25.279Z,1.30
2023-01-19T18:05:55.579Z,1.30
2023-01-19T18:08:22.210Z,1.50
2023-01-19T18:10:56.147Z,1.10
2023-01-19T18:13:23.119Z,1.10
2023-01-19T18:15:49.948Z,0.90
2023-01-19T18:18:16.954Z,0.60
2023-01-19T18:20:44.549Z,0.60
2023-01-19T18:23:11.574Z,0.60
2023-01-19T18:25:39.521Z,0.50
2023-01-19T18:28:06.863Z,0.50
2023-01-19T18:30:36.948Z,0.50
2023-01-19T18:33:03.809Z,0.60
2023-01-19T18:35:30.368Z,0.50
2023-01-19T18:37:58.436Z,0.60
2023-01-19T18:40:26.433Z,0.70
2023-01-19T18:42:52.908Z,1.20
2023-01-19T18:45:19.496Z,0.90
2023-01-19T18:47:46.033Z,0.90
2023-01-19T18:50:14.375Z,0.60
2023-01-19T18:52:41.129Z,0.50
2023-01-19T18:55:08.094Z,0.50
2023-01-19T18:57:35.611Z,0.70
2023-01-19T19:00:03.259Z,1.10
2023-01-19T19:02:29.824Z,0.80
2023-01-19T19:04:56.379Z,0.70
2023-01-19T19:07:22.937Z,0.50
2023-01-19T19:09:49.417Z,0.60
2023-01-19T19:12:16.052Z,0.50
2023-01-19T19:14:42.609Z,0.40
2023-01-19T19:17:09.180Z,0.60
2023-01-19T19:19:35.797Z,0.60
2023-01-19T19:22:02.311Z,0.90
2023-01-19T19:24:28.914Z,0.70
2023-01-19T19:26:55.658Z,0.70
2023-01-19T19:29:22.339Z,0.60
2023-01-19T19:31:48.892Z,0.80
2023-01-19T19:34:15.475Z,0.90
2023-01-19T19:36:42.138Z,0.70
2023-01-19T19:39:08.743Z,0.90
2023-01-19T19:41:38.204Z,1.00
2023-01-19T19:44:04.782Z,0.70
2023-01-19T19:46:31.296Z,0.70
2023-01-19T19:48:58.030Z,0.80
2023-01-19T19:51:26.989Z,0.80
2023-01-19T19:53:55.535Z,0.50
2023-01-19T19:56:23.658Z,0.50
2023-01-19T19:58:50.848Z,0.60
2023-01-19T20:01:25.936Z,0.40
2023-01-19T20:03:53.576Z,0.30
2023-01-19T20:06:22.220Z,0.40
2023-01-19T20:08:49.934Z,0.50
2023-01-19T20:11:19.268Z,0.60
2023-01-19T20:13:47.520Z,0.70
2023-01-19T20:16:16.460Z,0.90
2023-01-19T20:18:48.342Z,1.20
2023-01-19T20:21:20.522Z,1.60
2023-01-19T20:23:47.982Z,2.00
2023-01-19T20:26:16.225Z,2.30
2023-01-19T20:28:43.062Z,2.40
2023-01-19T20:31:15.921Z,2.10
2023-01-19T20:33:42.947Z,1.80
2023-01-19T20:36:10.485Z,1.40
2023-01-19T20:38:37.860Z,1.10
2023-01-19T20:41:05.515Z,1.00
2023-01-19T20:43:32.056Z,0.80
2023-01-19T20:45:58.663Z,0.90
2023-01-19T20:48:25.718Z,0.80
2023-01-19T20:51:03.743Z,1.10
2023-01-19T20:53:30.480Z,1.30
2023-01-19T20:55:57.005Z,1.30
2023-01-19T20:58:24.011Z,1.10
2023-01-19T21:00:50.757Z,1.20
2023-01-19T21:03:17.582Z,1.00
2023-01-19T21:05:47.296Z,1.30
2023-01-19T21:08:14.721Z,1.20
2023-01-19T21:10:42.097Z,1.30
2023-01-19T21:13:08.828Z,1.30
2023-01-19T21:15:35.337Z,1.10
2023-01-19T21:18:01.911Z,1.00
2023-01-19T21:20:31.550Z,1.00
2023-01-19T21:22:58.924Z,1.30
2023-01-19T21:25:25.480Z,1.40
2023-01-19T21:27:52.041Z,1.40
2023-01-19T21:30:18.862Z,1.60
2023-01-19T21:32:45.464Z,2.30
2023-01-19T21:35:12.320Z,2.20
2023-01-19T21:37:38.924Z,2.00
2023-01-19T21:40:06.237Z,2.50
2023-01-19T21:42:32.831Z,2.50
2023-01-19T21:44:59.373Z,2.40
2023-01-19T21:47:25.843Z,2.70
2023-01-19T21:49:52.448Z,3.00
2023-01-19T21:52:18.955Z,3.00
2023-01-19T21:54:45.457Z,2.90
2023-01-19T21:57:15.034Z,2.80
2023-01-19T21:59:41.638Z,2.30
2023-01-19T22:02:11.563Z,2.50
2023-01-19T22:04:39.119Z,2.50
2023-01-19T22:07:06.152Z,2.20
2023-01-19T22:09:36.049Z,2.00
2023-01-19T22:12:02.531Z,2.20
2023-01-19T22:14:29.311Z,2.20
2023-01-19T22:16:55.948Z,2.00
2023-01-19T22:19:22.722Z,2.00
2023-01-19T22:21:49.300Z,1.60
2023-01-19T22:24:15.826Z,1.60
2023-01-19T22:26:42.727Z,2.00
2023-01-19T22:29:11.273Z,2.40
2023-01-19T22:31:39.038Z,2.60
2023-01-19T22:34:10.026Z,2.70
2023-01-19T22:36:37.252Z,2.60
2023-01-19T22:39:09.088Z,2.70
2023-01-19T22:41:37.722Z,2.60
2023-01-19T22:44:07.142Z,2.40
2023-01-19T22:46:35.525Z,2.30
2023-01-19T22:49:02.641Z,2.00
2023-01-19T22:51:30.190Z,2.10
2023-01-19T22:53:57.056Z,2.10
2023-01-19T22:56:25.241Z,2.10
2023-01-19T22:58:52.261Z,2.30
2023-01-19T23:01:27.147Z,2.30
2023-01-19T23:03:54.662Z,2.10
2023-01-19T23:06:24.112Z,2.00
2023-01-19T23:08:51.213Z,2.10
2023-01-19T23:11:20.222Z,2.50
2023-01-19T23:13:46.966Z,2.10
2023-01-19T23:16:14.089Z,1.80
2023-01-19T23:18:41.620Z,1.80
2023-01-19T23:21:14.485Z,2.00
2023-01-19T23:23:41.594Z,2.00
2023-01-19T23:26:19.215Z,2.20
2023-01-19T23:28:46.476Z,2.10
2023-01-19T23:31:18.905Z,2.00
2023-01-19T23:33:45.643Z,1.80
2023-01-19T23:36:12.677Z,1.90
2023-01-19T23:38:39.699Z,1.90
2023-01-19T23:41:06.484Z,2.10
2023-01-19T23:43:33.074Z,2.30
2023-01-19T23:46:04.156Z,2.40
2023-01-19T23:48:30.706Z,2.70
2023-01-19T23:50:57.270Z,3.00
2023-01-19T23:53:23.945Z,3.10
2023-01-19T23:55:50.435Z,3.00
2023-01-19T23:58:16.950Z,2.80
